Terminal Aerodrome Forecast
Issued by NWS

Home | Current Version | Previous Version | Text Only | Print | Product List | Glossary On
Versions: 1 2 3 4 5 6 7 8 9 10 11 12 13 14 15 16 17 18
000
FTUS43 KDVN 190500
TAFCID
TAF
KCID 190520Z 1906/2006 13007KT P6SM SCT250
     FM191500 17015G23KT P6SM SCT250
     FM200000 16012KT P6SM SCT080 BKN250=

USA.gov is the U.S. government's official web portal to all federal, state and local government web resources and services.